Pineville, MO (64856)

10:02 PM CDT on March 25, 2017 (GMT -0500)
Brush Creek | | Change Station

Elev 1056 ft 36.51 °N, 94.34 °W | Updated 9 seconds ago

Overcast
Overcast
48.2 °F
Feels Like 48 °F
N
1.8
Wind Variable Wind from SSE
Gusts 2.5 mph

Today
High -- | Low -- °F
--% Chance of Precip.
Yesterday
High -- | Low -- °F
Precip. -- in
Pressure 29.95 in
Visibility 3.0 miles
Clouds Mostly Cloudy 800 ft
Overcast 1500 ft
Windchill 48 °F
Dew Point 44 °F
Humidity 86%
Rainfall 0.15 in
Snow Depth Not available.
7:13 AM 7:33 PM
Waning Crescent, 5% visible
METAR KVBT 260255Z AUTO 26005KT 3SM BKN008 OVC015 08/07 A2995 RMK AO1 52010
Pressure 29.95 in
Visibility 3.0 miles
Clouds Mostly Cloudy 800 ft
Overcast 1500 ft
Windchill 48 °F
Dew Point 44 °F
Humidity 86%
Rainfall 0.15 in
Snow Depth Not available.
7:13 AM 7:33 PM
Waning Crescent, 5% visible
METAR KVBT 260255Z AUTO 26005KT 3SM BKN008 OVC015 08/07 A2995 RMK AO1 52010

Get Severe Weather Alerts

Thanks for signing up!

Be on the lookout for a verification email in your inbox.

You'll start receiving the daily forecast at 8 AM.

×

10-Day Weather Forecast

Almanac

Astronomy

Mar. 25, 2017 Rise Set
Actual Time
Civil Twilight
Nautical Twilight
Astronomical Twilight
Moon
Length of Visible Light
Length of Day
Tomorrow will be .
, % of the Moon is Illuminated

Today's Extremes

State Highs State Lows

Community

WunderPhotos

Upload Photos

1,962,540 photos uploaded!

WunderBlog® & News

Nearby

Air Quality

  Air Quality AQ Index Pollutant
Not available.

Snow Depth

Station Depth Elevation

Earthquake Activity

City Distance Mag. Time & Date
Minimum magnitude displayed is 2.5.

Earthquake Activity

City Distance Mag. Time & Date
Minimum magnitude displayed is 2.5.

Coastal Water Temperatures

Place Temperature

Stations

Nearby Weather Stations

Station Location Temp. Windchill Dew Point Humidity Wind Precip. Elev Updated Type
                   

Watches & Warnings

There are currently no watches in effect.